sensor_id;sensor_type;location;lat;lon;timestamp;P1;durP1;ratioP1;P2;durP2;ratioP2
55989;SDS011;41875;55.806;38.082;2023-12-22T07:57:41;23.83;;;10.52;;
55989;SDS011;41875;55.806;38.082;2023-12-22T08:00:53;22.95;;;12.05;;
55989;SDS011;41875;55.806;38.082;2023-12-22T08:04:29;23.17;;;10.85;;
55989;SDS011;41875;55.806;38.082;2023-12-22T08:08:00;23.33;;;10.20;;
55989;SDS011;41875;55.806;38.082;2023-12-22T08:11:33;25.70;;;10.85;;
55989;SDS011;41875;55.806;38.082;2023-12-22T08:42:38;19.98;;;9.60;;
55989;SDS011;41875;55.806;38.082;2023-12-22T08:46:10;18.85;;;9.60;;
55989;SDS011;41875;55.806;38.082;2023-12-22T08:49:44;16.58;;;8.50;;
55989;SDS011;41875;55.806;38.082;2023-12-22T08:53:16;19.63;;;9.90;;
55989;SDS011;41875;55.806;38.082;2023-12-22T09:04:28;17.13;;;7.95;;
55989;SDS011;41875;55.806;38.082;2023-12-22T09:07:52;16.90;;;8.52;;
55989;SDS011;41875;55.806;38.082;2023-12-22T09:11:23;15.23;;;6.78;;
55989;SDS011;41875;55.806;38.082;2023-12-22T09:14:42;13.75;;;7.20;;
55989;SDS011;41875;55.806;38.082;2023-12-22T09:18:03;17.75;;;9.32;;
55989;SDS011;41875;55.806;38.082;2023-12-22T09:21:42;17.08;;;8.05;;
55989;SDS011;41875;55.806;38.082;2023-12-22T09:25:02;16.10;;;7.10;;
55989;SDS011;41875;55.806;38.082;2023-12-22T09:28:35;14.48;;;6.97;;
55989;SDS011;41875;55.806;38.082;2023-12-22T09:31:45;14.43;;;6.88;;
55989;SDS011;41875;55.806;38.082;2023-12-22T09:34:51;15.13;;;7.05;;
55989;SDS011;41875;55.806;38.082;2023-12-22T09:38:36;13.18;;;6.32;;
55989;SDS011;41875;55.806;38.082;2023-12-22T09:42:07;15.05;;;7.30;;
55989;SDS011;41875;55.806;38.082;2023-12-22T09:45:39;13.18;;;6.18;;
55989;SDS011;41875;55.806;38.082;2023-12-22T09:49:00;12.80;;;6.32;;
55989;SDS011;41875;55.806;38.082;2023-12-22T09:52:27;12.88;;;6.03;;
55989;SDS011;41875;55.806;38.082;2023-12-22T09:59:09;15.27;;;6.63;;
55989;SDS011;41875;55.806;38.082;2023-12-22T10:02:42;13.65;;;6.10;;
55989;SDS011;41875;55.806;38.082;2023-12-22T10:06:17;15.85;;;7.72;;
55989;SDS011;41875;55.806;38.082;2023-12-22T10:09:50;15.77;;;6.40;;
55989;SDS011;41875;55.806;38.082;2023-12-22T10:21:25;13.60;;;6.50;;
55989;SDS011;41875;55.806;38.082;2023-12-22T10:24:56;11.93;;;5.50;;
55989;SDS011;41875;55.806;38.082;2023-12-22T10:28:28;13.27;;;6.25;;
55989;SDS011;41875;55.806;38.082;2023-12-22T10:32:00;12.48;;;5.72;;
55989;SDS011;41875;55.806;38.082;2023-12-22T10:35:34;11.55;;;5.70;;
55989;SDS011;41875;55.806;38.082;2023-12-22T10:54:41;12.55;;;5.18;;
55989;SDS011;41875;55.806;38.082;2023-12-22T10:58:12;9.75;;;4.63;;
55989;SDS011;41875;55.806;38.082;2023-12-22T11:01:31;10.82;;;4.80;;
55989;SDS011;41875;55.806;38.082;2023-12-22T11:05:04;9.13;;;4.28;;
55989;SDS011;41875;55.806;38.082;2023-12-22T11:20:25;18.63;;;5.03;;
55989;SDS011;41875;55.806;38.082;2023-12-22T11:24:00;9.32;;;4.38;;
55989;SDS011;41875;55.806;38.082;2023-12-22T11:27:34;9.77;;;5.05;;
55989;SDS011;41875;55.806;38.082;2023-12-22T11:31:07;13.18;;;4.95;;
55989;SDS011;41875;55.806;38.082;2023-12-22T11:54:58;10.85;;;5.28;;
55989;SDS011;41875;55.806;38.082;2023-12-22T11:58:53;12.77;;;5.88;;
55989;SDS011;41875;55.806;38.082;2023-12-22T12:02:24;12.13;;;5.43;;
55989;SDS011;41875;55.806;38.082;2023-12-22T12:06:14;11.70;;;5.18;;
55989;SDS011;41875;55.806;38.082;2023-12-22T12:09:46;11.23;;;5.13;;
55989;SDS011;41875;55.806;38.082;2023-12-22T12:25:00;14.73;;;6.10;;
55989;SDS011;41875;55.806;38.082;2023-12-22T12:28:32;11.38;;;5.03;;
55989;SDS011;41875;55.806;38.082;2023-12-22T12:31:53;11.18;;;4.97;;
55989;SDS011;41875;55.806;38.082;2023-12-22T12:35:37;12.32;;;5.22;;
55989;SDS011;41875;55.806;38.082;2023-12-22T13:14:22;15.10;;;6.47;;
55989;SDS011;41875;55.806;38.082;2023-12-22T13:17:51;13.05;;;5.18;;
55989;SDS011;41875;55.806;38.082;2023-12-22T13:21:23;12.02;;;5.88;;
55989;SDS011;41875;55.806;38.082;2023-12-22T13:24:43;17.75;;;7.45;;
55989;SDS011;41875;55.806;38.082;2023-12-22T13:28:31;17.05;;;7.80;;
55989;SDS011;41875;55.806;38.082;2023-12-22T13:32:02;23.48;;;9.65;;
55989;SDS011;41875;55.806;38.082;2023-12-22T13:35:31;21.65;;;9.13;;
55989;SDS011;41875;55.806;38.082;2023-12-22T13:39:10;23.02;;;8.48;;
55989;SDS011;41875;55.806;38.082;2023-12-22T13:42:42;19.58;;;8.98;;
55989;SDS011;41875;55.806;38.082;2023-12-22T13:45:58;24.38;;;9.30;;
55989;SDS011;41875;55.806;38.082;2023-12-22T13:49:17;24.25;;;9.95;;
55989;SDS011;41875;55.806;38.082;2023-12-22T13:52:49;16.50;;;7.90;;
55989;SDS011;41875;55.806;38.082;2023-12-22T13:59:32;20.55;;;8.85;;
55989;SDS011;41875;55.806;38.082;2023-12-22T14:03:16;20.98;;;8.65;;
55989;SDS011;41875;55.806;38.082;2023-12-22T14:06:51;21.77;;;10.45;;
55989;SDS011;41875;55.806;38.082;2023-12-22T14:10:14;22.52;;;7.70;;
55989;SDS011;41875;55.806;38.082;2023-12-22T14:13:37;21.95;;;9.15;;
55989;SDS011;41875;55.806;38.082;2023-12-22T14:17:09;24.98;;;8.88;;
55989;SDS011;41875;55.806;38.082;2023-12-22T14:20:27;21.25;;;8.88;;
55989;SDS011;41875;55.806;38.082;2023-12-22T14:23:46;20.00;;;9.15;;
55989;SDS011;41875;55.806;38.082;2023-12-22T14:27:18;22.02;;;8.95;;
55989;SDS011;41875;55.806;38.082;2023-12-22T14:30:38;20.15;;;8.43;;
55989;SDS011;41875;55.806;38.082;2023-12-22T14:34:00;21.15;;;8.95;;
55989;SDS011;41875;55.806;38.082;2023-12-22T15:12:58;25.13;;;10.00;;
55989;SDS011;41875;55.806;38.082;2023-12-22T15:16:31;30.70;;;13.05;;
55989;SDS011;41875;55.806;38.082;2023-12-22T15:20:11;28.27;;;12.15;;
55989;SDS011;41875;55.806;38.082;2023-12-22T15:23:30;31.45;;;13.32;;
55989;SDS011;41875;55.806;38.082;2023-12-22T15:34:56;29.92;;;13.02;;
55989;SDS011;41875;55.806;38.082;2023-12-22T15:38:16;31.75;;;13.48;;
55989;SDS011;41875;55.806;38.082;2023-12-22T15:41:35;35.85;;;14.90;;
55989;SDS011;41875;55.806;38.082;2023-12-22T15:45:09;32.03;;;12.68;;
55989;SDS011;41875;55.806;38.082;2023-12-22T15:48:46;25.92;;;11.48;;
55989;SDS011;41875;55.806;38.082;2023-12-22T15:56:18;26.63;;;11.07;;
55989;SDS011;41875;55.806;38.082;2023-12-22T15:59:54;21.55;;;9.00;;
55989;SDS011;41875;55.806;38.082;2023-12-22T16:03:22;24.13;;;11.27;;
55989;SDS011;41875;55.806;38.082;2023-12-22T16:06:55;16.50;;;7.93;;
55989;SDS011;41875;55.806;38.082;2023-12-22T16:10:16;18.67;;;8.82;;
55989;SDS011;41875;55.806;38.082;2023-12-22T16:13:40;21.38;;;9.75;;
55989;SDS011;41875;55.806;38.082;2023-12-22T16:16:58;23.23;;;9.68;;
55989;SDS011;41875;55.806;38.082;2023-12-22T16:20:07;23.63;;;9.90;;
55989;SDS011;41875;55.806;38.082;2023-12-22T16:23:22;18.55;;;8.85;;
55989;SDS011;41875;55.806;38.082;2023-12-22T16:26:43;19.67;;;8.68;;
55989;SDS011;41875;55.806;38.082;2023-12-22T16:29:49;24.02;;;10.32;;
55989;SDS011;41875;55.806;38.082;2023-12-22T16:32:58;23.48;;;9.80;;
55989;SDS011;41875;55.806;38.082;2023-12-22T16:36:16;23.05;;;8.43;;
55989;SDS011;41875;55.806;38.082;2023-12-22T16:39:23;23.20;;;9.98;;
55989;SDS011;41875;55.806;38.082;2023-12-22T16:42:54;22.65;;;9.60;;
55989;SDS011;41875;55.806;38.082;2023-12-22T16:57:55;31.98;;;14.05;;
55989;SDS011;41875;55.806;38.082;2023-12-22T17:01:04;36.20;;;13.60;;
55989;SDS011;41875;55.806;38.082;2023-12-22T17:04:32;37.10;;;16.50;;
55989;SDS011;41875;55.806;38.082;2023-12-22T17:07:42;39.05;;;15.80;;
55989;SDS011;41875;55.806;38.082;2023-12-22T17:11:03;35.97;;;14.68;;
55989;SDS011;41875;55.806;38.082;2023-12-22T17:22:10;48.03;;;18.65;;
55989;SDS011;41875;55.806;38.082;2023-12-22T17:25:29;52.53;;;19.85;;
55989;SDS011;41875;55.806;38.082;2023-12-22T17:28:58;43.85;;;18.98;;
55989;SDS011;41875;55.806;38.082;2023-12-22T17:32:14;40.55;;;16.25;;
55989;SDS011;41875;55.806;38.082;2023-12-22T17:35:18;49.55;;;19.10;;
55989;SDS011;41875;55.806;38.082;2023-12-22T17:38:39;43.00;;;18.38;;
55989;SDS011;41875;55.806;38.082;2023-12-22T17:41:52;49.58;;;18.98;;
55989;SDS011;41875;55.806;38.082;2023-12-22T17:45:21;49.45;;;17.40;;
55989;SDS011;41875;55.806;38.082;2023-12-22T17:48:26;52.92;;;16.50;;
55989;SDS011;41875;55.806;38.082;2023-12-22T17:51:49;51.65;;;16.90;;
55989;SDS011;41875;55.806;38.082;2023-12-22T18:02:58;47.38;;;14.63;;
55989;SDS011;41875;55.806;38.082;2023-12-22T18:06:30;37.17;;;12.65;;
55989;SDS011;41875;55.806;38.082;2023-12-22T18:10:01;42.13;;;14.95;;
55989;SDS011;41875;55.806;38.082;2023-12-22T18:24:13;37.97;;;12.70;;
55989;SDS011;41875;55.806;38.082;2023-12-22T18:27:27;43.00;;;15.00;;
55989;SDS011;41875;55.806;38.082;2023-12-22T18:30:40;40.92;;;14.25;;
55989;SDS011;41875;55.806;38.082;2023-12-22T18:34:01;41.70;;;13.23;;
55989;SDS011;41875;55.806;38.082;2023-12-22T18:41:27;46.88;;;15.68;;
55989;SDS011;41875;55.806;38.082;2023-12-22T18:44:42;40.05;;;14.70;;
55989;SDS011;41875;55.806;38.082;2023-12-22T18:48:05;41.45;;;14.40;;
55989;SDS011;41875;55.806;38.082;2023-12-22T18:51:12;43.55;;;14.23;;
55989;SDS011;41875;55.806;38.082;2023-12-22T18:54:18;42.22;;;14.32;;
55989;SDS011;41875;55.806;38.082;2023-12-22T19:02:10;36.20;;;15.02;;
55989;SDS011;41875;55.806;38.082;2023-12-22T19:05:42;42.58;;;15.68;;
55989;SDS011;41875;55.806;38.082;2023-12-22T19:09:10;37.63;;;13.80;;
55989;SDS011;41875;55.806;38.082;2023-12-22T19:15:41;37.33;;;13.60;;
55989;SDS011;41875;55.806;38.082;2023-12-22T19:18:52;33.60;;;13.35;;
55989;SDS011;41875;55.806;38.082;2023-12-22T19:22:13;38.85;;;14.15;;
55989;SDS011;41875;55.806;38.082;2023-12-22T19:25:36;44.63;;;13.93;;
55989;SDS011;41875;55.806;38.082;2023-12-22T19:43:38;25.90;;;10.27;;
55989;SDS011;41875;55.806;38.082;2023-12-22T19:46:46;31.92;;;12.27;;
55989;SDS011;41875;55.806;38.082;2023-12-22T19:50:05;28.95;;;12.50;;
55989;SDS011;41875;55.806;38.082;2023-12-22T19:53:18;32.22;;;12.13;;
55989;SDS011;41875;55.806;38.082;2023-12-22T19:56:23;30.42;;;11.80;;
55989;SDS011;41875;55.806;38.082;2023-12-22T19:59:38;27.85;;;11.70;;
55989;SDS011;41875;55.806;38.082;2023-12-22T20:03:13;29.10;;;11.13;;
55989;SDS011;41875;55.806;38.082;2023-12-22T20:06:26;32.38;;;11.73;;
55989;SDS011;41875;55.806;38.082;2023-12-22T20:09:45;28.00;;;11.45;;
55989;SDS011;41875;55.806;38.082;2023-12-22T20:13:17;27.77;;;10.30;;
55989;SDS011;41875;55.806;38.082;2023-12-22T20:20:05;22.50;;;8.95;;
55989;SDS011;41875;55.806;38.082;2023-12-22T20:23:26;24.40;;;10.60;;
55989;SDS011;41875;55.806;38.082;2023-12-22T20:30:04;23.98;;;9.15;;
55989;SDS011;41875;55.806;38.082;2023-12-22T20:36:58;23.23;;;10.40;;
55989;SDS011;41875;55.806;38.082;2023-12-22T20:40:16;25.92;;;9.20;;
55989;SDS011;41875;55.806;38.082;2023-12-22T20:43:57;24.35;;;10.13;;
55989;SDS011;41875;55.806;38.082;2023-12-22T20:47:56;24.90;;;9.70;;
55989;SDS011;41875;55.806;38.082;2023-12-22T21:02:58;21.15;;;9.55;;
55989;SDS011;41875;55.806;38.082;2023-12-22T21:09:54;23.67;;;10.52;;
55989;SDS011;41875;55.806;38.082;2023-12-22T21:13:15;22.75;;;9.80;;
55989;SDS011;41875;55.806;38.082;2023-12-22T21:32:51;29.95;;;12.35;;
55989;SDS011;41875;55.806;38.082;2023-12-22T21:36:18;24.17;;;12.25;;
55989;SDS011;41875;55.806;38.082;2023-12-22T21:39:40;24.60;;;11.27;;
55989;SDS011;41875;55.806;38.082;2023-12-22T21:43:00;23.17;;;9.38;;
55989;SDS011;41875;55.806;38.082;2023-12-22T21:46:21;24.92;;;11.13;;
55989;SDS011;41875;55.806;38.082;2023-12-22T21:53:56;27.35;;;12.00;;
55989;SDS011;41875;55.806;38.082;2023-12-22T21:57:13;21.00;;;9.40;;
55989;SDS011;41875;55.806;38.082;2023-12-22T22:00:19;25.63;;;11.75;;
55989;SDS011;41875;55.806;38.082;2023-12-22T22:03:59;26.15;;;13.18;;
55989;SDS011;41875;55.806;38.082;2023-12-22T22:07:25;28.88;;;13.10;;
55989;SDS011;41875;55.806;38.082;2023-12-22T22:11:00;26.63;;;12.48;;
55989;SDS011;41875;55.806;38.082;2023-12-22T22:14:18;28.17;;;13.77;;
55989;SDS011;41875;55.806;38.082;2023-12-22T22:17:31;25.08;;;12.70;;
55989;SDS011;41875;55.806;38.082;2023-12-22T22:20:37;24.33;;;11.70;;
55989;SDS011;41875;55.806;38.082;2023-12-22T22:23:42;28.17;;;13.05;;
55989;SDS011;41875;55.806;38.082;2023-12-22T22:31:09;24.83;;;10.05;;
55989;SDS011;41875;55.806;38.082;2023-12-22T22:34:29;25.48;;;12.50;;
55989;SDS011;41875;55.806;38.082;2023-12-22T22:37:56;22.63;;;13.00;;
55989;SDS011;41875;55.806;38.082;2023-12-22T22:41:31;23.23;;;10.77;;
55989;SDS011;41875;55.806;38.082;2023-12-22T22:44:41;25.85;;;11.48;;
55989;SDS011;41875;55.806;38.082;2023-12-22T22:48:05;23.67;;;12.18;;
55989;SDS011;41875;55.806;38.082;2023-12-22T22:51:18;27.42;;;12.35;;
55989;SDS011;41875;55.806;38.082;2023-12-22T22:54:24;25.10;;;12.80;;
55989;SDS011;41875;55.806;38.082;2023-12-22T22:57:42;23.42;;;10.98;;
55989;SDS011;41875;55.806;38.082;2023-12-22T23:01:10;24.48;;;11.65;;
55989;SDS011;41875;55.806;38.082;2023-12-22T23:04:37;28.10;;;12.48;;
55989;SDS011;41875;55.806;38.082;2023-12-22T23:07:49;24.35;;;11.35;;
55989;SDS011;41875;55.806;38.082;2023-12-22T23:15:11;27.27;;;13.48;;
55989;SDS011;41875;55.806;38.082;2023-12-22T23:18:33;24.08;;;12.90;;
55989;SDS011;41875;55.806;38.082;2023-12-22T23:21:58;24.02;;;11.90;;
55989;SDS011;41875;55.806;38.082;2023-12-22T23:28:23;28.60;;;12.48;;
55989;SDS011;41875;55.806;38.082;2023-12-22T23:31:30;29.25;;;13.15;;
55989;SDS011;41875;55.806;38.082;2023-12-22T23:34:49;26.58;;;12.25;;
55989;SDS011;41875;55.806;38.082;2023-12-22T23:38:12;27.05;;;12.75;;
55989;SDS011;41875;55.806;38.082;2023-12-22T23:41:58;25.08;;;11.65;;
55989;SDS011;41875;55.806;38.082;2023-12-22T23:45:21;29.63;;;14.30;;
55989;SDS011;41875;55.806;38.082;2023-12-22T23:48:53;26.27;;;13.75;;
55989;SDS011;41875;55.806;38.082;2023-12-22T23:52:19;32.03;;;15.57;;
55989;SDS011;41875;55.806;38.082;2023-12-22T23:55:40;31.08;;;13.73;;
55989;SDS011;41875;55.806;38.082;2023-12-22T23:59:17;28.23;;;12.73;;
